createdAt,value
2017-08-25T00:00:13.015Z,945.1
2017-08-25T00:01:21.176Z,945.1
2017-08-25T00:02:29.184Z,945.1
2017-08-25T00:03:37.273Z,945.1
2017-08-25T00:04:45.365Z,945.2
2017-08-25T00:05:53.451Z,945.1
2017-08-25T00:07:01.715Z,945.2
2017-08-25T00:08:09.621Z,945.2
2017-08-25T00:09:17.711Z,945.2
2017-08-25T00:10:25.803Z,945.2
2017-08-25T00:11:34.066Z,945.2
2017-08-25T00:12:42.032Z,945.2
2017-08-25T00:13:50.066Z,945.2
2017-08-25T00:14:58.183Z,945.2
2017-08-25T00:16:06.395Z,945.2
2017-08-25T00:17:14.326Z,945.2
2017-08-25T00:18:22.468Z,945.2
2017-08-25T00:19:30.516Z,945.2
2017-08-25T00:20:38.736Z,945.2
2017-08-25T00:21:46.677Z,945.2
2017-08-25T00:22:54.764Z,945.2
2017-08-25T00:24:02.909Z,945.2
2017-08-25T00:25:10.970Z,945.2
2017-08-25T00:26:19.027Z,945.2
2017-08-25T00:27:27.114Z,945.1
2017-08-25T00:28:35.260Z,945.2
2017-08-25T00:29:43.490Z,945.2
2017-08-25T00:30:51.380Z,945.2
2017-08-25T00:31:59.474Z,945.1
2017-08-25T00:33:07.555Z,945.1
2017-08-25T00:34:15.770Z,945.2
2017-08-25T00:35:23.786Z,945.1
2017-08-25T00:36:31.816Z,945.1
2017-08-25T00:37:39.905Z,945.1
2017-08-25T00:38:47.993Z,945.1
2017-08-25T00:39:56.080Z,945.1
2017-08-25T00:41:04.293Z,945.1
2017-08-25T00:42:12.284Z,945.1
2017-08-25T00:43:20.375Z,945.1
2017-08-25T00:44:28.491Z,945.1
2017-08-25T00:45:36.522Z,945.1
2017-08-25T00:46:44.730Z,945.1
2017-08-25T00:47:52.698Z,945.1
2017-08-25T00:49:00.786Z,945.1
2017-08-25T00:50:08.871Z,945.1
2017-08-25T00:51:16.961Z,945.1
2017-08-25T00:52:25.104Z,945.1
2017-08-25T00:53:33.145Z,945.1
2017-08-25T00:54:41.223Z,945.1
2017-08-25T00:55:49.311Z,945.1
2017-08-25T00:56:57.398Z,945.1
2017-08-25T00:58:05.625Z,945.1
2017-08-25T00:59:13.573Z,945.1
2017-08-25T01:00:21.727Z,945.1
2017-08-25T01:01:29.753Z,945.1
2017-08-25T01:02:37.850Z,945.1
2017-08-25T01:03:45.978Z,945.1
2017-08-25T01:04:54.013Z,945.1
2017-08-25T01:06:02.102Z,945.1
2017-08-25T01:07:10.189Z,945.1
2017-08-25T01:08:18.278Z,945.1
2017-08-25T01:09:26.486Z,945.1
2017-08-25T01:10:34.453Z,945.1
2017-08-25T01:11:42.542Z,945.1
2017-08-25T01:12:50.629Z,945.1
2017-08-25T01:13:58.720Z,945.0
2017-08-25T01:15:07.563Z,945.0
2017-08-25T01:16:15.243Z,945.1
2017-08-25T01:17:23.076Z,945.1
2017-08-25T01:18:31.168Z,945.0
2017-08-25T01:19:39.243Z,945.0
2017-08-25T01:20:47.388Z,945.0
2017-08-25T01:21:55.335Z,945.0
2017-08-25T01:23:03.515Z,945.0
2017-08-25T01:24:11.632Z,945.0
2017-08-25T01:25:19.648Z,945.0
2017-08-25T01:26:27.742Z,945.0
2017-08-25T01:27:36.186Z,945.0
2017-08-25T01:28:43.938Z,945.0
2017-08-25T01:29:52.050Z,945.0
2017-08-25T01:31:00.137Z,945.0
2017-08-25T01:32:08.202Z,945.0
2017-08-25T01:33:16.232Z,945.1
2017-08-25T01:34:24.502Z,945.1
2017-08-25T01:35:32.475Z,945.0
2017-08-25T01:36:40.580Z,945.0
2017-08-25T01:37:48.637Z,945.0
2017-08-25T01:38:56.731Z,945.0
2017-08-25T01:40:04.757Z,945.0
2017-08-25T01:41:12.941Z,945.0
2017-08-25T01:42:21.015Z,945.1
2017-08-25T01:43:29.081Z,945.0
2017-08-25T01:44:37.305Z,945.0
2017-08-25T01:45:45.210Z,945.0
2017-08-25T01:46:53.479Z,945.0
2017-08-25T01:48:01.624Z,945.1
2017-08-25T01:49:09.529Z,945.0
2017-08-25T01:50:17.570Z,945.0
2017-08-25T01:51:25.829Z,945.0
2017-08-25T01:52:33.841Z,945.0
2017-08-25T01:53:41.822Z,945.0
2017-08-25T01:54:51.455Z,945.0
2017-08-25T01:55:58.022Z,945.0
2017-08-25T01:57:06.101Z,945.0
2017-08-25T01:58:14.172Z,945.0
2017-08-25T01:59:22.259Z,945.0
2017-08-25T02:00:30.467Z,945.0
2017-08-25T02:01:38.452Z,945.0
2017-08-25T02:02:46.522Z,945.0
2017-08-25T02:03:54.665Z,945.0
2017-08-25T02:05:02.697Z,945.0
2017-08-25T02:06:10.839Z,945.0
2017-08-25T02:07:19.023Z,945.0
2017-08-25T02:08:26.963Z,944.9
2017-08-25T02:09:35.046Z,945.0
2017-08-25T02:10:43.254Z,944.9
2017-08-25T02:11:51.276Z,944.9
2017-08-25T02:12:59.313Z,944.9
2017-08-25T02:14:07.394Z,944.9
2017-08-25T02:15:15.479Z,944.9
2017-08-25T02:16:23.570Z,944.9
2017-08-25T02:17:31.712Z,944.9
2017-08-25T02:18:39.752Z,944.9
2017-08-25T02:19:47.961Z,944.9
2017-08-25T02:20:55.977Z,944.9
2017-08-25T02:22:04.013Z,944.9
2017-08-25T02:23:12.157Z,944.9
2017-08-25T02:24:20.186Z,944.9
2017-08-25T02:25:28.328Z,944.9
2017-08-25T02:26:36.363Z,944.9
2017-08-25T02:27:44.451Z,944.9
2017-08-25T02:28:52.593Z,944.9
2017-08-25T02:30:00.624Z,944.9
2017-08-25T02:31:08.712Z,944.9
2017-08-25T02:32:16.800Z,944.9
2017-08-25T02:33:24.982Z,944.9
2017-08-25T02:34:33.093Z,944.9
2017-08-25T02:35:41.117Z,944.9
2017-08-25T02:36:49.151Z,944.9
2017-08-25T02:37:57.319Z,944.9
2017-08-25T02:39:05.349Z,944.9
2017-08-25T02:40:13.471Z,944.9
2017-08-25T02:41:21.498Z,944.9
2017-08-25T02:42:29.585Z,944.9
2017-08-25T02:43:37.790Z,944.9
2017-08-25T02:44:45.766Z,944.9
2017-08-25T02:45:53.980Z,944.9
2017-08-25T02:47:01.946Z,944.9
2017-08-25T02:48:10.043Z,944.9
2017-08-25T02:49:18.137Z,944.9
2017-08-25T02:50:26.250Z,944.9
2017-08-25T02:51:34.399Z,944.9
2017-08-25T02:52:42.426Z,944.8
2017-08-25T02:53:50.526Z,944.8
2017-08-25T02:54:58.601Z,944.8
2017-08-25T02:56:06.689Z,944.8
2017-08-25T02:57:14.905Z,944.8
2017-08-25T02:58:22.974Z,944.8
2017-08-25T02:59:30.950Z,944.9
2017-08-25T03:00:39.038Z,944.9
2017-08-25T03:01:47.125Z,944.9
2017-08-25T03:02:55.448Z,944.8
2017-08-25T03:04:03.299Z,944.9
2017-08-25T03:05:11.390Z,944.9
2017-08-25T03:06:19.514Z,944.8
2017-08-25T03:07:27.621Z,944.9
2017-08-25T03:08:35.772Z,944.8
2017-08-25T03:09:43.737Z,944.8
2017-08-25T03:10:51.823Z,944.8
2017-08-25T03:11:59.911Z,944.8
2017-08-25T03:13:07.999Z,944.8
2017-08-25T03:14:16.143Z,944.8
2017-08-25T03:15:24.185Z,944.7
2017-08-25T03:16:32.281Z,944.8
2017-08-25T03:17:40.368Z,944.8
2017-08-25T03:18:48.455Z,944.8
2017-08-25T03:19:56.611Z,944.8
2017-08-25T03:21:04.775Z,944.8
2017-08-25T03:22:12.720Z,944.8
2017-08-25T03:23:20.862Z,944.9
2017-08-25T03:24:28.895Z,944.8
2017-08-25T03:25:37.038Z,944.8
2017-08-25T03:26:45.092Z,944.8
2017-08-25T03:27:53.157Z,944.8
2017-08-25T03:29:01.254Z,944.8
2017-08-25T03:30:09.342Z,944.8
2017-08-25T03:31:17.547Z,944.8
2017-08-25T03:32:25.515Z,944.8
2017-08-25T03:33:33.778Z,944.8
2017-08-25T03:34:41.687Z,944.8
2017-08-25T03:35:49.774Z,944.8
2017-08-25T03:36:57.919Z,944.8
2017-08-25T03:38:05.973Z,944.8
2017-08-25T03:39:14.095Z,944.9
2017-08-25T03:40:22.125Z,944.8
2017-08-25T03:41:30.214Z,944.8
2017-08-25T03:42:38.353Z,944.9
2017-08-25T03:43:46.385Z,944.8
2017-08-25T03:44:54.479Z,944.8
2017-08-25T03:46:02.561Z,944.8
2017-08-25T03:47:10.797Z,944.8
2017-08-25T03:48:18.792Z,944.8
2017-08-25T03:49:26.824Z,944.8
2017-08-25T03:50:34.909Z,944.8
2017-08-25T03:51:42.996Z,944.8
2017-08-25T03:52:51.084Z,944.8
2017-08-25T03:53:59.300Z,944.8
2017-08-25T03:55:07.322Z,944.8
2017-08-25T03:56:15.484Z,944.8
2017-08-25T03:57:23.440Z,944.9
2017-08-25T03:58:31.530Z,944.9
2017-08-25T03:59:39.691Z,944.9
2017-08-25T04:00:47.722Z,944.9
2017-08-25T04:01:55.809Z,944.9
2017-08-25T04:03:03.896Z,944.9
2017-08-25T04:04:11.985Z,944.9
2017-08-25T04:05:20.216Z,944.9
2017-08-25T04:06:28.324Z,944.9
2017-08-25T04:07:36.246Z,944.9
2017-08-25T04:08:44.333Z,945.0
2017-08-25T04:09:52.642Z,945.0
2017-08-25T04:11:00.860Z,945.0
2017-08-25T04:12:08.679Z,945.0
2017-08-25T04:13:16.687Z,945.0
2017-08-25T04:14:24.953Z,945.0
2017-08-25T04:15:32.889Z,945.0
2017-08-25T04:16:41.065Z,944.9
2017-08-25T04:17:49.034Z,944.9
2017-08-25T04:18:57.318Z,945.0
2017-08-25T04:20:05.208Z,945.0
2017-08-25T04:21:13.296Z,944.9
2017-08-25T04:22:21.439Z,944.9
2017-08-25T04:23:29.474Z,944.9
2017-08-25T04:24:37.679Z,944.9
2017-08-25T04:25:45.646Z,944.9
2017-08-25T04:26:53.788Z,944.9
2017-08-25T04:28:02.055Z,944.9
2017-08-25T04:29:09.908Z,944.9
2017-08-25T04:30:17.997Z,944.9
2017-08-25T04:31:26.084Z,944.9
2017-08-25T04:32:34.173Z,944.9
2017-08-25T04:33:42.433Z,944.9
2017-08-25T04:34:50.400Z,944.9
2017-08-25T04:35:58.487Z,944.9
2017-08-25T04:37:07.193Z,944.9
2017-08-25T04:38:14.745Z,944.9
2017-08-25T04:39:22.890Z,945.0
2017-08-25T04:40:30.924Z,945.0
2017-08-25T04:41:39.008Z,945.0
2017-08-25T04:42:47.152Z,945.0
2017-08-25T04:43:55.181Z,945.0
2017-08-25T04:45:03.326Z,945.0
2017-08-25T04:46:11.361Z,945.0
2017-08-25T04:47:19.446Z,945.0
2017-08-25T04:48:27.539Z,945.0
2017-08-25T04:49:35.678Z,945.0
2017-08-25T04:50:43.760Z,945.0
2017-08-25T04:51:51.847Z,945.0
2017-08-25T04:53:00.379Z,945.0
2017-08-25T04:54:08.019Z,945.0
2017-08-25T04:55:16.390Z,945.0
2017-08-25T04:56:24.196Z,945.0
2017-08-25T04:57:32.286Z,945.1
2017-08-25T04:58:40.428Z,945.1
2017-08-25T04:59:48.460Z,945.1
2017-08-25T05:00:56.601Z,945.1
2017-08-25T05:02:04.633Z,945.1
2017-08-25T05:03:12.721Z,945.1
2017-08-25T05:04:20.809Z,945.0
2017-08-25T05:05:28.909Z,945.1
2017-08-25T05:06:37.040Z,945.1
2017-08-25T05:07:45.072Z,945.1
2017-08-25T05:08:53.160Z,945.1
2017-08-25T05:10:01.376Z,945.1
2017-08-25T05:11:09.332Z,945.1
2017-08-25T05:12:17.497Z,945.1
2017-08-25T05:13:25.629Z,945.1
2017-08-25T05:14:33.705Z,945.1
2017-08-25T05:15:41.704Z,945.1
2017-08-25T05:16:49.788Z,945.1
2017-08-25T05:17:58.034Z,945.1
2017-08-25T05:19:05.965Z,945.1
2017-08-25T05:20:14.054Z,945.1
2017-08-25T05:21:22.141Z,945.2
2017-08-25T05:22:30.418Z,945.2
2017-08-25T05:23:38.510Z,945.2
2017-08-25T05:24:46.404Z,945.2
2017-08-25T05:25:54.508Z,945.2
2017-08-25T05:27:02.693Z,945.2
2017-08-25T05:28:10.719Z,945.2
2017-08-25T05:29:18.818Z,945.2
2017-08-25T05:30:26.973Z,945.2
2017-08-25T05:31:34.938Z,945.2
2017-08-25T05:32:43.027Z,945.2
2017-08-25T05:33:51.112Z,945.2
2017-08-25T05:34:59.296Z,945.2
2017-08-25T05:36:07.328Z,945.2
2017-08-25T05:37:15.414Z,945.2
2017-08-25T05:38:23.502Z,945.2
2017-08-25T05:39:31.590Z,945.3
2017-08-25T05:40:39.750Z,945.2
2017-08-25T05:41:47.839Z,945.3
2017-08-25T05:42:55.869Z,945.3
2017-08-25T05:44:03.945Z,945.3
2017-08-25T05:45:12.028Z,945.3
2017-08-25T05:46:20.347Z,945.3
2017-08-25T05:47:28.204Z,945.3
2017-08-25T05:48:36.292Z,945.3
2017-08-25T05:49:44.379Z,945.3
2017-08-25T05:50:52.467Z,945.3
2017-08-25T05:52:00.610Z,945.3
2017-08-25T05:53:08.647Z,945.3
2017-08-25T05:54:16.735Z,945.3
2017-08-25T05:55:24.819Z,945.3
2017-08-25T05:56:32.907Z,945.3
2017-08-25T05:57:41.052Z,945.3
2017-08-25T05:58:49.081Z,945.3
2017-08-25T05:59:57.171Z,945.3
2017-08-25T06:01:05.257Z,945.3
2017-08-25T06:02:13.403Z,945.3
2017-08-25T06:03:21.554Z,945.3
2017-08-25T06:04:29.520Z,945.4
2017-08-25T06:05:37.607Z,945.4
2017-08-25T06:06:45.695Z,945.4
2017-08-25T06:07:53.782Z,945.4
2017-08-25T06:09:02.080Z,945.4
2017-08-25T06:10:09.956Z,945.4
2017-08-25T06:11:18.044Z,945.4
2017-08-25T06:12:26.146Z,945.4
2017-08-25T06:13:34.288Z,945.4
2017-08-25T06:14:42.388Z,945.4
2017-08-25T06:15:50.417Z,945.4
2017-08-25T06:16:58.508Z,945.4
2017-08-25T06:18:06.648Z,945.4
2017-08-25T06:19:14.680Z,945.4
2017-08-25T06:20:22.828Z,945.4
2017-08-25T06:21:30.853Z,945.4
2017-08-25T06:22:38.945Z,945.4
2017-08-25T06:23:47.028Z,945.5
2017-08-25T06:24:55.117Z,945.4
2017-08-25T06:26:03.324Z,945.5
2017-08-25T06:27:11.294Z,945.5
2017-08-25T06:28:19.382Z,945.5
2017-08-25T06:29:27.467Z,945.5
2017-08-25T06:30:35.561Z,945.5
2017-08-25T06:31:43.695Z,945.5
2017-08-25T06:32:51.727Z,945.5
2017-08-25T06:34:00.321Z,945.5
2017-08-25T06:35:07.903Z,945.5
2017-08-25T06:36:16.078Z,945.5
2017-08-25T06:37:24.136Z,945.5
2017-08-25T06:38:32.166Z,945.5
2017-08-25T06:39:40.276Z,945.5
2017-08-25T06:40:48.543Z,945.5
2017-08-25T06:41:56.452Z,945.5
2017-08-25T06:43:04.602Z,945.5
2017-08-25T06:44:12.633Z,945.6
2017-08-25T06:45:20.721Z,945.5
2017-08-25T06:46:28.809Z,945.5
2017-08-25T06:47:36.896Z,945.6
2017-08-25T06:48:45.041Z,945.6
2017-08-25T06:49:53.634Z,945.6
2017-08-25T06:51:01.278Z,945.6
2017-08-25T06:52:09.244Z,945.6
2017-08-25T06:53:17.335Z,945.6
2017-08-25T06:54:25.479Z,945.7
2017-08-25T06:55:33.528Z,945.6
2017-08-25T06:56:41.597Z,945.7
2017-08-25T06:57:49.679Z,945.7
2017-08-25T06:58:57.777Z,945.7
2017-08-25T07:00:06.368Z,945.7
2017-08-25T07:01:13.951Z,945.7
2017-08-25T07:02:22.040Z,945.7
2017-08-25T07:03:30.134Z,945.8
2017-08-25T07:04:38.300Z,945.7
2017-08-25T07:05:46.434Z,945.8
2017-08-25T07:06:54.475Z,945.7
2017-08-25T07:08:02.565Z,945.7
2017-08-25T07:09:10.755Z,945.7
2017-08-25T07:10:18.737Z,945.7
2017-08-25T07:11:26.878Z,945.8
2017-08-25T07:12:34.963Z,945.7
2017-08-25T07:13:43.009Z,945.7
2017-08-25T07:14:51.087Z,945.7
2017-08-25T07:15:59.173Z,945.7
2017-08-25T07:17:07.384Z,945.7
2017-08-25T07:18:15.350Z,945.7
2017-08-25T07:19:23.435Z,945.7
2017-08-25T07:20:31.524Z,945.7
2017-08-25T07:21:39.743Z,945.7
2017-08-25T07:22:47.818Z,945.8
2017-08-25T07:23:55.785Z,945.8
2017-08-25T07:25:03.873Z,945.8
2017-08-25T07:26:11.960Z,945.7
2017-08-25T07:27:20.054Z,945.8
2017-08-25T07:28:28.196Z,945.8
2017-08-25T07:29:36.228Z,945.8
2017-08-25T07:30:44.316Z,945.8
2017-08-25T07:31:52.484Z,945.8
2017-08-25T07:33:00.501Z,945.8
2017-08-25T07:34:08.713Z,945.8
2017-08-25T07:35:16.676Z,945.8
2017-08-25T07:36:24.761Z,945.8
2017-08-25T07:37:32.906Z,945.8
2017-08-25T07:38:40.939Z,945.8
2017-08-25T07:39:49.149Z,945.8
2017-08-25T07:40:57.125Z,945.8
2017-08-25T07:42:05.213Z,945.8
2017-08-25T07:43:13.303Z,945.8
2017-08-25T07:44:21.385Z,945.8
2017-08-25T07:45:29.569Z,945.8
2017-08-25T07:46:37.559Z,945.8
2017-08-25T07:47:45.648Z,945.9
2017-08-25T07:48:53.748Z,945.9
2017-08-25T07:50:01.938Z,945.9
2017-08-25T07:51:10.031Z,945.9
2017-08-25T07:52:17.996Z,945.9
2017-08-25T07:53:26.141Z,945.9
2017-08-25T07:54:34.178Z,945.9
2017-08-25T07:55:42.258Z,945.9
2017-08-25T07:56:50.466Z,945.9
2017-08-25T07:57:58.434Z,945.9
2017-08-25T07:59:06.519Z,945.8
2017-08-25T08:00:14.609Z,945.8
2017-08-25T08:01:22.701Z,945.8
2017-08-25T08:02:30.912Z,945.8
2017-08-25T08:03:38.957Z,945.8
2017-08-25T08:04:46.958Z,945.8
2017-08-25T08:05:55.047Z,945.8
2017-08-25T08:07:03.134Z,945.8
2017-08-25T08:08:11.464Z,945.8
2017-08-25T08:09:19.369Z,945.8
2017-08-25T08:10:27.396Z,945.8
2017-08-25T08:11:35.492Z,945.8
2017-08-25T08:12:43.749Z,945.8
2017-08-25T08:13:51.730Z,945.8
2017-08-25T08:14:59.763Z,945.8
2017-08-25T08:16:07.857Z,945.8
2017-08-25T08:17:15.941Z,945.8
2017-08-25T08:18:24.029Z,945.8
2017-08-25T08:19:32.241Z,945.8
2017-08-25T08:20:40.204Z,945.8
2017-08-25T08:21:48.488Z,945.8
2017-08-25T08:22:56.378Z,945.8
2017-08-25T08:24:04.729Z,945.8
2017-08-25T08:25:12.908Z,945.8
2017-08-25T08:26:20.938Z,945.8
2017-08-25T08:27:29.025Z,945.8
2017-08-25T08:28:37.111Z,945.8
2017-08-25T08:29:45.200Z,945.8
2017-08-25T08:30:53.344Z,945.8
2017-08-25T08:32:01.376Z,945.8
2017-08-25T08:33:09.470Z,945.7
2017-08-25T08:34:17.556Z,945.8
2017-08-25T08:35:25.641Z,945.8
2017-08-25T08:36:33.848Z,945.8
2017-08-25T08:37:41.812Z,945.8
2017-08-25T08:38:49.900Z,945.8
2017-08-25T08:39:57.996Z,945.7
2017-08-25T08:41:06.147Z,945.8
2017-08-25T08:42:14.229Z,945.7
2017-08-25T08:43:22.465Z,945.7
2017-08-25T08:44:30.531Z,945.7
2017-08-25T08:45:38.512Z,945.7
2017-08-25T08:46:46.597Z,945.7
2017-08-25T08:47:54.807Z,945.7
2017-08-25T08:49:02.785Z,945.7
2017-08-25T08:50:10.873Z,945.7
2017-08-25T08:51:18.967Z,945.8
2017-08-25T08:52:27.059Z,945.8
2017-08-25T08:53:35.201Z,945.8
2017-08-25T08:54:43.231Z,945.7
2017-08-25T08:55:51.317Z,945.8
2017-08-25T08:56:59.572Z,945.7
2017-08-25T08:58:07.493Z,945.7
2017-08-25T08:59:15.703Z,945.7
2017-08-25T09:00:23.672Z,945.8
2017-08-25T09:01:31.764Z,945.8
2017-08-25T09:02:39.847Z,945.8
2017-08-25T09:03:47.933Z,945.7
2017-08-25T09:04:56.077Z,945.8
2017-08-25T09:06:04.277Z,945.8
2017-08-25T09:07:12.198Z,945.8
2017-08-25T09:08:20.285Z,945.7
2017-08-25T09:09:28.374Z,945.8
2017-08-25T09:10:36.518Z,945.8
2017-08-25T09:11:44.748Z,945.8
2017-08-25T09:12:52.759Z,945.8
2017-08-25T09:14:00.724Z,945.7
2017-08-25T09:15:08.848Z,945.7
2017-08-25T09:16:16.969Z,945.7
2017-08-25T09:17:24.992Z,945.7
2017-08-25T09:18:33.078Z,945.7
2017-08-25T09:19:41.168Z,945.7
2017-08-25T09:20:49.256Z,945.6
2017-08-25T09:21:57.463Z,945.6
2017-08-25T09:23:05.431Z,945.6
2017-08-25T09:24:13.521Z,945.6
2017-08-25T09:25:21.610Z,945.6
2017-08-25T09:26:29.696Z,945.7
2017-08-25T09:27:37.841Z,945.6
2017-08-25T09:28:45.994Z,945.6
2017-08-25T09:29:53.961Z,945.6
2017-08-25T09:31:02.049Z,945.6
2017-08-25T09:32:10.134Z,945.6
2017-08-25T09:33:18.294Z,945.6
2017-08-25T09:34:26.348Z,945.6
2017-08-25T09:35:34.411Z,945.6
2017-08-25T09:36:42.499Z,945.6
2017-08-25T09:37:50.589Z,945.6
2017-08-25T09:38:58.729Z,945.5
2017-08-25T09:40:06.764Z,945.5
2017-08-25T09:41:14.849Z,945.5
2017-08-25T09:42:22.939Z,945.5
2017-08-25T09:43:31.028Z,945.5
2017-08-25T09:44:39.171Z,945.5
2017-08-25T09:45:47.203Z,945.5
2017-08-25T09:46:55.290Z,945.5
2017-08-25T09:48:03.482Z,945.5
2017-08-25T09:49:11.467Z,945.5
2017-08-25T09:50:19.673Z,945.5
2017-08-25T09:51:27.641Z,945.5
2017-08-25T09:52:35.846Z,945.4
2017-08-25T09:53:43.823Z,945.4
2017-08-25T09:54:51.906Z,945.4
2017-08-25T09:56:00.056Z,945.4
2017-08-25T09:57:08.084Z,945.4
2017-08-25T09:58:16.172Z,945.4
2017-08-25T09:59:24.275Z,945.4
2017-08-25T10:00:32.426Z,945.4
2017-08-25T10:01:40.521Z,945.4
2017-08-25T10:02:48.556Z,945.4
2017-08-25T10:03:56.640Z,945.3
2017-08-25T10:05:04.731Z,945.4
2017-08-25T10:06:12.858Z,945.4
2017-08-25T10:07:20.961Z,945.4
2017-08-25T10:08:28.994Z,945.4
2017-08-25T10:09:37.082Z,945.4
2017-08-25T10:10:45.313Z,945.4
2017-08-25T10:11:53.272Z,945.4
2017-08-25T10:13:01.409Z,945.5
2017-08-25T10:14:09.442Z,945.5
2017-08-25T10:15:17.693Z,945.5
2017-08-25T10:16:25.682Z,945.5
2017-08-25T10:17:33.743Z,945.5
2017-08-25T10:18:41.953Z,945.4
2017-08-25T10:19:49.922Z,945.4
2017-08-25T10:20:58.009Z,945.4
2017-08-25T10:22:06.100Z,945.4
2017-08-25T10:23:14.185Z,945.5
2017-08-25T10:24:22.447Z,945.4
2017-08-25T10:25:30.361Z,945.4
2017-08-25T10:26:38.453Z,945.4
2017-08-25T10:27:46.544Z,945.4
2017-08-25T10:28:54.818Z,945.4
2017-08-25T10:30:02.835Z,945.4
2017-08-25T10:31:10.803Z,945.3
2017-08-25T10:32:18.963Z,945.3
2017-08-25T10:33:27.064Z,945.3
2017-08-25T10:34:35.080Z,945.3
2017-08-25T10:35:43.225Z,945.2
2017-08-25T10:36:51.255Z,945.3
2017-08-25T10:37:59.407Z,945.3
2017-08-25T10:39:07.441Z,945.2
2017-08-25T10:40:15.529Z,945.2
2017-08-25T10:41:23.738Z,945.3
2017-08-25T10:42:31.853Z,945.2
2017-08-25T10:43:39.795Z,945.2
2017-08-25T10:44:47.883Z,945.2
2017-08-25T10:45:55.973Z,945.2
2017-08-25T10:47:04.121Z,945.2
2017-08-25T10:48:12.205Z,945.2
2017-08-25T10:49:20.236Z,945.2
2017-08-25T10:50:28.326Z,945.2
2017-08-25T10:51:36.442Z,945.2
2017-08-25T10:52:44.623Z,945.2
2017-08-25T10:53:52.748Z,945.2
2017-08-25T10:55:00.981Z,945.2
2017-08-25T10:56:08.926Z,945.1
2017-08-25T10:57:17.014Z,945.1
2017-08-25T10:58:25.222Z,945.1
2017-08-25T10:59:33.189Z,945.1
2017-08-25T11:00:41.288Z,945.1
2017-08-25T11:01:49.382Z,945.1
2017-08-25T11:02:57.540Z,945.1
2017-08-25T11:04:05.749Z,945.1
2017-08-25T11:05:13.718Z,945.1
2017-08-25T11:06:21.806Z,945.1
2017-08-25T11:07:29.896Z,945.0
2017-08-25T11:08:38.085Z,945.0
2017-08-25T11:09:46.130Z,945.0
2017-08-25T11:10:54.159Z,945.0
2017-08-25T11:12:02.264Z,945.0
2017-08-25T11:13:10.337Z,945.0
2017-08-25T11:14:18.554Z,945.0
2017-08-25T11:15:26.588Z,945.0
2017-08-25T11:16:34.619Z,945.0
2017-08-25T11:17:42.706Z,945.0
2017-08-25T11:18:50.797Z,945.0
2017-08-25T11:19:58.941Z,945.0
2017-08-25T11:21:07.093Z,945.0
2017-08-25T11:22:15.062Z,945.0
2017-08-25T11:23:23.152Z,945.0
2017-08-25T11:24:31.238Z,944.9
2017-08-25T11:25:39.328Z,945.0
2017-08-25T11:26:47.473Z,944.9
2017-08-25T11:27:55.593Z,945.0
2017-08-25T11:29:03.593Z,944.9
2017-08-25T11:30:11.682Z,944.9
2017-08-25T11:31:19.771Z,944.9
2017-08-25T11:32:27.927Z,944.9
2017-08-25T11:33:35.950Z,944.9
2017-08-25T11:34:44.039Z,944.9
2017-08-25T11:35:52.182Z,944.9
2017-08-25T11:37:00.224Z,944.9
2017-08-25T11:38:08.366Z,944.9
2017-08-25T11:39:16.400Z,944.9
2017-08-25T11:40:24.491Z,944.8
2017-08-25T11:41:32.577Z,944.8
2017-08-25T11:42:40.666Z,944.8
2017-08-25T11:43:48.885Z,944.8
2017-08-25T11:44:56.851Z,944.8
2017-08-25T11:46:04.976Z,944.8
2017-08-25T11:47:13.018Z,944.8
2017-08-25T11:48:21.110Z,944.8
2017-08-25T11:49:29.254Z,944.8
2017-08-25T11:50:37.409Z,944.8
2017-08-25T11:51:45.609Z,944.8
2017-08-25T11:52:53.641Z,944.8
2017-08-25T11:54:01.920Z,944.7
2017-08-25T11:55:09.946Z,944.8
2017-08-25T11:56:17.910Z,944.7
2017-08-25T11:57:26.002Z,944.7
2017-08-25T11:58:34.261Z,944.8
2017-08-25T11:59:42.349Z,944.8
2017-08-25T12:00:50.504Z,944.8
2017-08-25T12:01:58.539Z,944.8
2017-08-25T12:03:06.623Z,944.9
2017-08-25T12:04:14.715Z,944.9
2017-08-25T12:05:22.811Z,944.8
2017-08-25T12:06:31.032Z,944.8
2017-08-25T12:07:39.055Z,944.8
2017-08-25T12:08:47.087Z,944.7
2017-08-25T12:09:55.176Z,944.7
2017-08-25T12:11:03.460Z,944.7
2017-08-25T12:12:11.410Z,944.7
2017-08-25T12:13:20.439Z,944.7
2017-08-25T12:14:27.528Z,944.7
2017-08-25T12:15:35.618Z,944.7
2017-08-25T12:16:43.720Z,944.7
2017-08-25T12:17:51.929Z,944.7
2017-08-25T12:18:59.897Z,944.7
2017-08-25T12:20:07.987Z,944.7
2017-08-25T12:21:16.074Z,944.6
2017-08-25T12:22:24.166Z,944.6
2017-08-25T12:23:32.370Z,944.6
2017-08-25T12:24:40.339Z,944.7
2017-08-25T12:25:48.560Z,944.7
2017-08-25T12:26:56.526Z,944.6
2017-08-25T12:28:04.616Z,944.6
2017-08-25T12:29:12.764Z,944.6
2017-08-25T12:30:20.915Z,944.6
2017-08-25T12:31:28.879Z,944.5
2017-08-25T12:32:36.969Z,944.5
2017-08-25T12:33:45.058Z,944.5
2017-08-25T12:34:53.207Z,944.5
2017-08-25T12:36:01.235Z,944.5
2017-08-25T12:37:09.339Z,944.5
2017-08-25T12:38:17.567Z,944.5
2017-08-25T12:39:25.632Z,944.5
2017-08-25T12:40:33.885Z,944.5
2017-08-25T12:41:41.852Z,944.5
2017-08-25T12:42:49.942Z,944.5
2017-08-25T12:43:58.030Z,944.5
2017-08-25T12:45:06.126Z,944.5
2017-08-25T12:46:14.272Z,944.4
2017-08-25T12:47:22.303Z,944.5
2017-08-25T12:48:30.392Z,944.5
2017-08-25T12:49:38.489Z,944.4
2017-08-25T12:50:46.577Z,944.4
2017-08-25T12:51:54.794Z,944.4
2017-08-25T12:53:02.761Z,944.4
2017-08-25T12:54:10.846Z,944.4
2017-08-25T12:55:19.066Z,944.4
2017-08-25T12:56:28.032Z,944.4
2017-08-25T12:57:35.245Z,944.4
2017-08-25T12:58:43.212Z,944.4
2017-08-25T12:59:51.301Z,944.4
2017-08-25T13:00:59.578Z,944.4
2017-08-25T13:02:07.478Z,944.4
2017-08-25T13:03:15.688Z,944.4
2017-08-25T13:04:23.658Z,944.3
2017-08-25T13:05:31.943Z,944.3
2017-08-25T13:06:39.837Z,944.4
2017-08-25T13:07:47.944Z,944.4
2017-08-25T13:08:56.133Z,944.3
2017-08-25T13:10:04.167Z,944.3
2017-08-25T13:11:12.314Z,944.3
2017-08-25T13:12:20.349Z,944.2
2017-08-25T13:13:28.434Z,944.3
2017-08-25T13:14:36.585Z,944.3
2017-08-25T13:15:44.612Z,944.2
2017-08-25T13:16:52.701Z,944.2
2017-08-25T13:18:00.795Z,944.3
2017-08-25T13:20:17.029Z,944.3
2017-08-25T13:21:25.063Z,944.3
2017-08-25T13:22:33.154Z,944.3
2017-08-25T13:23:41.326Z,944.3
2017-08-25T13:24:50.338Z,944.3
2017-08-25T13:25:57.484Z,944.4
2017-08-25T13:27:11.025Z,944.3
2017-08-25T13:28:13.783Z,944.3
2017-08-25T13:29:21.705Z,944.3
2017-08-25T13:30:29.830Z,944.3
2017-08-25T13:31:37.926Z,944.2
2017-08-25T13:32:45.959Z,944.2
2017-08-25T13:33:54.047Z,944.2
2017-08-25T13:35:02.138Z,944.2
2017-08-25T13:36:10.226Z,944.2
2017-08-25T13:37:18.444Z,944.2
2017-08-25T13:38:26.405Z,944.2
2017-08-25T13:39:34.494Z,944.1
2017-08-25T13:40:42.582Z,944.2
2017-08-25T13:41:50.670Z,944.1
2017-08-25T13:42:58.883Z,944.1
2017-08-25T13:44:06.848Z,944.1
2017-08-25T13:45:15.011Z,944.1
2017-08-25T13:46:23.026Z,944.1
2017-08-25T13:47:31.118Z,944.1
2017-08-25T13:48:39.266Z,944.1
2017-08-25T13:49:47.292Z,944.0
2017-08-25T13:50:55.388Z,944.0
2017-08-25T13:52:03.625Z,944.0
2017-08-25T13:53:11.653Z,944.0
2017-08-25T13:54:19.809Z,943.9
2017-08-25T13:55:27.779Z,944.0
2017-08-25T13:56:35.877Z,943.9
2017-08-25T13:57:43.957Z,943.9
2017-08-25T13:58:52.101Z,943.9
2017-08-25T14:00:00.256Z,943.9
2017-08-25T14:01:08.223Z,944.0
2017-08-25T14:02:17.326Z,943.9
2017-08-25T14:03:24.416Z,943.9
2017-08-25T14:04:32.506Z,943.9
2017-08-25T14:05:40.715Z,943.9
2017-08-25T14:06:48.692Z,944.0
2017-08-25T14:07:56.782Z,944.0
2017-08-25T14:09:05.062Z,943.9
2017-08-25T14:10:12.959Z,943.9
2017-08-25T14:11:21.105Z,943.9
2017-08-25T14:12:29.147Z,943.9
2017-08-25T14:14:45.440Z,943.9
2017-08-25T14:15:53.562Z,943.8
2017-08-25T14:17:01.558Z,943.8
2017-08-25T14:18:09.745Z,943.8
2017-08-25T14:19:17.679Z,943.8
2017-08-25T14:20:25.765Z,943.7
2017-08-25T14:21:33.857Z,943.8
2017-08-25T14:22:42.066Z,943.7
2017-08-25T14:23:50.033Z,943.8
2017-08-25T14:24:58.121Z,943.8
2017-08-25T14:26:06.232Z,943.8
2017-08-25T14:27:14.321Z,943.8
2017-08-25T14:28:22.590Z,943.8
2017-08-25T14:29:30.520Z,943.8
2017-08-25T14:30:38.735Z,943.8
2017-08-25T14:31:46.869Z,943.8
2017-08-25T14:32:54.790Z,943.8
2017-08-25T14:34:02.930Z,943.7
2017-08-25T14:35:10.961Z,943.8
2017-08-25T14:36:19.050Z,943.8
2017-08-25T14:37:27.186Z,943.8
2017-08-25T14:38:35.378Z,943.8